createdAt,value
2018-11-02T00:01:04.895Z,0.00
2018-11-02T00:02:10.432Z,0.00
2018-11-02T00:03:15.969Z,0.00
2018-11-02T00:04:21.507Z,0.00
2018-11-02T00:05:27.035Z,0.00
2018-11-02T00:06:32.575Z,0.00
2018-11-02T00:07:38.109Z,0.00
2018-11-02T00:08:43.642Z,0.00
2018-11-02T00:09:49.179Z,0.00
2018-11-02T00:10:54.711Z,0.00
2018-11-02T00:12:00.247Z,0.00
2018-11-02T00:13:05.783Z,0.00
2018-11-02T00:14:11.322Z,0.00
2018-11-02T00:15:16.862Z,0.00
2018-11-02T00:16:22.413Z,0.00
2018-11-02T00:17:27.925Z,0.00
2018-11-02T00:18:33.457Z,0.00
2018-11-02T00:19:38.996Z,0.00
2018-11-02T00:20:44.535Z,0.00
2018-11-02T00:21:50.067Z,0.00
2018-11-02T00:22:55.603Z,0.00
2018-11-02T00:24:01.142Z,0.00
2018-11-02T00:25:06.675Z,0.00
2018-11-02T00:26:12.217Z,0.00
2018-11-02T00:27:17.749Z,0.00
2018-11-02T00:28:23.282Z,0.00
2018-11-02T00:29:28.824Z,0.00
2018-11-02T00:30:34.360Z,0.00
2018-11-02T00:31:39.917Z,0.00
2018-11-02T00:32:45.423Z,0.00
2018-11-02T00:33:50.960Z,0.00
2018-11-02T00:34:56.497Z,0.00
2018-11-02T00:36:02.067Z,0.00
2018-11-02T00:37:07.576Z,0.00
2018-11-02T00:38:13.112Z,0.00
2018-11-02T00:39:18.645Z,0.00
2018-11-02T00:40:24.178Z,0.00
2018-11-02T00:41:29.710Z,0.00
2018-11-02T00:42:35.246Z,0.00
2018-11-02T00:43:40.782Z,0.00
2018-11-02T00:44:46.314Z,0.00
2018-11-02T00:45:51.849Z,0.00
2018-11-02T00:46:57.385Z,0.00
2018-11-02T00:48:02.923Z,0.00
2018-11-02T00:49:08.460Z,0.00
2018-11-02T00:50:13.998Z,0.00
2018-11-02T00:51:19.536Z,0.00
2018-11-02T00:52:25.066Z,0.00
2018-11-02T00:53:30.604Z,0.00
2018-11-02T00:54:36.142Z,0.00
2018-11-02T00:55:41.672Z,0.00
2018-11-02T00:56:47.214Z,0.00
2018-11-02T00:57:52.743Z,0.00
2018-11-02T00:58:58.281Z,0.00
2018-11-02T01:00:03.816Z,0.00
2018-11-02T01:01:09.348Z,0.00
2018-11-02T01:02:14.885Z,0.00
2018-11-02T01:03:20.423Z,0.00
2018-11-02T01:04:25.960Z,0.00
2018-11-02T01:05:31.495Z,0.00
2018-11-02T01:06:37.028Z,0.00
2018-11-02T01:07:42.566Z,0.00
2018-11-02T01:08:48.099Z,0.00
2018-11-02T01:09:53.645Z,0.00
2018-11-02T01:10:59.173Z,0.00
2018-11-02T01:12:04.708Z,0.00
2018-11-02T01:13:10.247Z,0.00
2018-11-02T01:14:15.779Z,0.00
2018-11-02T01:15:21.328Z,0.00
2018-11-02T01:16:26.900Z,0.00
2018-11-02T01:17:32.383Z,0.00
2018-11-02T01:18:37.921Z,0.00
2018-11-02T01:19:43.457Z,0.00
2018-11-02T01:20:48.992Z,0.00
2018-11-02T01:21:54.526Z,0.00
2018-11-02T01:23:00.068Z,0.00
2018-11-02T01:24:05.636Z,0.00
2018-11-02T01:25:11.133Z,0.00
2018-11-02T01:26:16.668Z,0.00
2018-11-02T01:27:22.204Z,0.00
2018-11-02T01:28:27.743Z,0.00
2018-11-02T01:29:33.281Z,0.00
2018-11-02T01:30:38.814Z,0.00
2018-11-02T01:31:44.346Z,0.00
2018-11-02T01:32:49.883Z,0.00
2018-11-02T01:33:55.423Z,0.00
2018-11-02T01:35:00.959Z,0.00
2018-11-02T01:36:06.488Z,0.00
2018-11-02T01:37:12.023Z,0.00
2018-11-02T01:38:17.561Z,0.00
2018-11-02T01:39:23.129Z,0.00
2018-11-02T01:40:28.629Z,0.00
2018-11-02T01:41:34.181Z,0.00
2018-11-02T01:42:39.706Z,0.00
2018-11-02T01:43:45.236Z,0.00
2018-11-02T01:44:50.775Z,0.00
2018-11-02T01:45:56.315Z,0.00
2018-11-02T01:47:01.843Z,0.00
2018-11-02T01:48:07.384Z,0.00
2018-11-02T01:49:12.912Z,0.00
2018-11-02T01:50:18.451Z,0.00
2018-11-02T01:51:23.991Z,0.00
2018-11-02T01:52:29.522Z,0.00
2018-11-02T01:53:35.067Z,0.00
2018-11-02T01:54:40.597Z,0.00
2018-11-02T01:55:46.130Z,0.00
2018-11-02T01:56:51.665Z,0.00
2018-11-02T01:57:57.198Z,0.00
2018-11-02T01:59:02.736Z,0.00
2018-11-02T02:00:08.287Z,0.00
2018-11-02T02:01:13.803Z,0.00
2018-11-02T02:02:19.353Z,0.00
2018-11-02T02:03:24.884Z,0.00
2018-11-02T02:04:30.411Z,0.00
2018-11-02T02:05:35.944Z,0.00
2018-11-02T02:06:41.479Z,0.00
2018-11-02T02:07:47.024Z,0.00
2018-11-02T02:08:52.556Z,0.00
2018-11-02T02:09:58.087Z,0.00
2018-11-02T02:11:03.620Z,0.00
2018-11-02T02:12:09.166Z,0.00
2018-11-02T02:13:14.796Z,0.00
2018-11-02T02:14:20.232Z,0.00
2018-11-02T02:15:25.764Z,0.00
2018-11-02T02:16:31.301Z,0.00
2018-11-02T02:17:36.839Z,0.00
2018-11-02T02:18:42.369Z,0.00
2018-11-02T02:19:47.903Z,0.00
2018-11-02T02:20:53.444Z,0.00
2018-11-02T02:21:58.980Z,0.00
2018-11-02T02:23:04.511Z,0.00
2018-11-02T02:24:10.048Z,0.00
2018-11-02T02:25:15.580Z,0.00
2018-11-02T02:26:21.121Z,0.00
2018-11-02T02:27:26.652Z,0.00
2018-11-02T02:28:32.187Z,0.00
2018-11-02T02:29:37.727Z,0.00
2018-11-02T02:30:43.262Z,0.00
2018-11-02T02:31:48.797Z,0.00
2018-11-02T02:32:54.333Z,0.00
2018-11-02T02:33:59.866Z,0.00
2018-11-02T02:35:05.399Z,0.00
2018-11-02T02:36:10.931Z,0.00
2018-11-02T02:37:16.469Z,0.00
2018-11-02T02:38:22.004Z,0.00
2018-11-02T02:39:27.545Z,0.00
2018-11-02T02:40:33.079Z,0.00
2018-11-02T02:41:38.611Z,0.00
2018-11-02T02:42:44.144Z,0.00
2018-11-02T02:43:49.676Z,0.00
2018-11-02T02:44:55.215Z,0.00
2018-11-02T02:46:00.749Z,0.00
2018-11-02T02:47:06.292Z,0.00
2018-11-02T02:48:11.818Z,0.00
2018-11-02T02:49:17.358Z,0.00
2018-11-02T02:50:22.891Z,0.00
2018-11-02T02:51:28.424Z,0.00
2018-11-02T02:52:33.960Z,0.00
2018-11-02T02:53:39.496Z,0.00
2018-11-02T02:54:45.028Z,0.00
2018-11-02T02:55:50.564Z,0.00
2018-11-02T02:56:56.104Z,0.00
2018-11-02T02:58:01.632Z,0.00
2018-11-02T02:59:07.170Z,0.00
2018-11-02T03:00:12.708Z,0.00
2018-11-02T03:01:18.241Z,0.00
2018-11-02T03:02:23.784Z,0.00
2018-11-02T03:03:29.316Z,0.00
2018-11-02T03:04:34.850Z,0.00
2018-11-02T03:05:40.380Z,0.00
2018-11-02T03:06:45.916Z,0.00
2018-11-02T03:07:51.451Z,0.00
2018-11-02T03:08:56.986Z,0.00
2018-11-02T03:10:02.518Z,0.00
2018-11-02T03:11:08.309Z,0.00
2018-11-02T03:12:13.590Z,0.00
2018-11-02T03:13:19.126Z,0.00
2018-11-02T03:14:24.663Z,0.00
2018-11-02T03:15:30.193Z,0.00
2018-11-02T03:16:35.730Z,0.00
2018-11-02T03:17:41.265Z,0.00
2018-11-02T03:18:46.893Z,0.00
2018-11-02T03:19:52.334Z,0.00
2018-11-02T03:20:57.911Z,0.00
2018-11-02T03:22:03.405Z,0.00
2018-11-02T03:23:08.936Z,0.00
2018-11-02T03:24:14.474Z,0.00
2018-11-02T03:25:20.009Z,0.00
2018-11-02T03:26:25.549Z,0.00
2018-11-02T03:27:31.091Z,0.00
2018-11-02T03:28:36.618Z,0.00
2018-11-02T03:29:42.150Z,0.00
2018-11-02T03:30:47.693Z,0.00
2018-11-02T03:31:53.219Z,0.00
2018-11-02T03:32:58.760Z,0.00
2018-11-02T03:34:04.292Z,0.00
2018-11-02T03:35:09.826Z,0.00
2018-11-02T03:36:15.388Z,0.00
2018-11-02T03:37:20.894Z,0.00
2018-11-02T03:38:26.433Z,0.00
2018-11-02T03:39:31.968Z,0.00
2018-11-02T03:40:37.508Z,0.00
2018-11-02T03:41:43.037Z,0.00
2018-11-02T03:42:48.576Z,0.00
2018-11-02T03:43:54.106Z,0.00
2018-11-02T03:44:59.646Z,0.00
2018-11-02T03:46:05.175Z,0.00
2018-11-02T03:47:10.712Z,0.00
2018-11-02T03:48:16.249Z,0.00
2018-11-02T03:49:21.780Z,0.00
2018-11-02T03:50:27.421Z,0.00
2018-11-02T03:51:32.850Z,0.00
2018-11-02T03:52:38.393Z,0.00
2018-11-02T03:53:43.922Z,0.00
2018-11-02T03:54:49.458Z,0.00
2018-11-02T03:55:54.997Z,0.00
2018-11-02T03:57:00.721Z,0.00
2018-11-02T03:58:06.059Z,0.00
2018-11-02T03:59:11.630Z,0.00
2018-11-02T04:00:17.133Z,0.00
2018-11-02T04:01:22.667Z,0.00
2018-11-02T04:02:28.203Z,0.00
2018-11-02T04:03:33.741Z,0.00
2018-11-02T04:04:39.277Z,0.00
2018-11-02T04:05:44.812Z,0.00
2018-11-02T04:06:50.339Z,0.00
2018-11-02T04:07:55.876Z,0.00
2018-11-02T04:09:01.413Z,0.00
2018-11-02T04:10:06.945Z,0.00
2018-11-02T04:11:12.486Z,0.00
2018-11-02T04:12:18.021Z,0.00
2018-11-02T04:13:23.551Z,0.00
2018-11-02T04:14:29.086Z,0.00
2018-11-02T04:15:34.622Z,0.00
2018-11-02T04:16:40.157Z,0.00
2018-11-02T04:17:45.691Z,0.00
2018-11-02T04:18:51.231Z,0.00
2018-11-02T04:19:56.768Z,0.00
2018-11-02T04:21:02.297Z,0.00
2018-11-02T04:22:07.830Z,0.00
2018-11-02T04:23:13.364Z,0.00
2018-11-02T04:24:18.907Z,0.00
2018-11-02T04:25:24.436Z,0.00
2018-11-02T04:26:29.978Z,0.00
2018-11-02T04:27:35.509Z,0.00
2018-11-02T04:28:41.043Z,0.00
2018-11-02T04:29:46.580Z,0.00
2018-11-02T04:30:52.204Z,0.00
2018-11-02T04:31:57.648Z,0.00
2018-11-02T04:33:03.181Z,0.00
2018-11-02T04:34:08.715Z,0.00
2018-11-02T04:35:14.255Z,0.00
2018-11-02T04:36:19.790Z,0.00
2018-11-02T04:37:25.319Z,0.00
2018-11-02T04:38:30.854Z,0.00
2018-11-02T04:39:36.390Z,0.00
2018-11-02T04:40:41.925Z,0.00
2018-11-02T04:41:47.463Z,0.00
2018-11-02T04:42:53.034Z,0.00
2018-11-02T04:43:58.529Z,0.00
2018-11-02T04:45:04.073Z,0.00
2018-11-02T04:46:09.598Z,0.00
2018-11-02T04:47:15.139Z,0.00
2018-11-02T04:48:20.670Z,0.00
2018-11-02T04:49:26.217Z,0.00
2018-11-02T04:50:31.737Z,0.00
2018-11-02T04:51:37.283Z,0.00
2018-11-02T04:52:42.809Z,0.00
2018-11-02T04:53:48.347Z,0.00
2018-11-02T04:54:53.877Z,0.00
2018-11-02T04:55:59.410Z,0.00
2018-11-02T04:57:04.947Z,0.00
2018-11-02T04:58:10.489Z,0.00
2018-11-02T04:59:16.016Z,0.00
2018-11-02T05:00:21.553Z,0.00
2018-11-02T05:01:27.090Z,0.00
2018-11-02T05:02:32.620Z,0.00
2018-11-02T05:03:38.158Z,0.00
2018-11-02T05:04:43.689Z,0.00
2018-11-02T05:05:49.223Z,0.00
2018-11-02T05:06:54.792Z,0.00
2018-11-02T05:08:00.301Z,0.00
2018-11-02T05:09:05.829Z,0.00
2018-11-02T05:10:11.365Z,0.00
2018-11-02T05:11:16.941Z,0.00
2018-11-02T05:12:22.434Z,0.00
2018-11-02T05:13:28.826Z,0.00
2018-11-02T05:14:33.508Z,0.00
2018-11-02T05:15:39.037Z,0.00
2018-11-02T05:16:44.578Z,0.00
2018-11-02T05:17:50.111Z,0.00
2018-11-02T05:18:55.648Z,0.00
2018-11-02T05:20:01.178Z,0.00
2018-11-02T05:21:06.745Z,0.00
2018-11-02T05:22:12.244Z,0.00
2018-11-02T05:23:17.782Z,0.00
2018-11-02T05:24:23.319Z,0.00
2018-11-02T05:25:28.852Z,0.00
2018-11-02T05:26:34.384Z,0.00
2018-11-02T05:27:39.922Z,0.00
2018-11-02T05:28:45.462Z,0.00
2018-11-02T05:29:50.990Z,0.00
2018-11-02T05:30:56.524Z,0.00
2018-11-02T05:32:02.063Z,0.00
2018-11-02T05:33:07.600Z,0.00
2018-11-02T05:34:13.135Z,0.00
2018-11-02T05:35:18.668Z,0.00
2018-11-02T05:36:24.194Z,0.00
2018-11-02T05:37:29.735Z,0.00
2018-11-02T05:38:35.269Z,0.00
2018-11-02T05:39:40.869Z,0.00
2018-11-02T05:40:46.347Z,0.00
2018-11-02T05:41:51.876Z,0.00
2018-11-02T05:42:57.411Z,0.00
2018-11-02T05:44:02.952Z,0.00
2018-11-02T05:45:08.477Z,0.00
2018-11-02T05:46:14.016Z,0.00
2018-11-02T05:47:19.629Z,0.00
2018-11-02T05:48:25.091Z,0.00
2018-11-02T05:49:30.626Z,0.00
2018-11-02T05:50:36.152Z,0.00
2018-11-02T05:51:41.694Z,0.00
2018-11-02T05:52:47.220Z,0.00
2018-11-02T05:53:52.758Z,0.00
2018-11-02T05:54:58.292Z,0.00
2018-11-02T05:56:03.829Z,0.00
2018-11-02T05:57:09.370Z,0.00
2018-11-02T05:58:14.899Z,0.00
2018-11-02T05:59:20.437Z,0.00
2018-11-02T06:00:25.978Z,0.00
2018-11-02T06:01:31.532Z,0.00
2018-11-02T06:02:37.047Z,4.00
2018-11-02T06:03:42.576Z,0.00
2018-11-02T06:04:48.109Z,0.00
2018-11-02T06:05:53.643Z,4.00
2018-11-02T06:06:59.181Z,4.00
2018-11-02T06:08:04.749Z,0.00
2018-11-02T06:09:10.265Z,0.00
2018-11-02T06:10:15.783Z,0.00
2018-11-02T06:11:21.324Z,4.00
2018-11-02T06:12:26.855Z,4.00
2018-11-02T06:13:32.403Z,4.00
2018-11-02T06:14:37.923Z,4.00
2018-11-02T06:15:43.464Z,8.00
2018-11-02T06:16:49.094Z,8.00
2018-11-02T06:17:54.529Z,8.00
2018-11-02T06:19:00.066Z,8.00
2018-11-02T06:20:05.599Z,12.00
2018-11-02T06:21:11.139Z,12.00
2018-11-02T06:22:16.675Z,16.00
2018-11-02T06:23:22.206Z,20.00
2018-11-02T06:24:27.805Z,20.00
2018-11-02T06:25:33.278Z,20.00
2018-11-02T06:26:38.816Z,20.00
2018-11-02T06:27:44.344Z,24.00
2018-11-02T06:28:49.887Z,20.00
2018-11-02T06:29:55.421Z,20.00
2018-11-02T06:31:00.953Z,24.00
2018-11-02T06:32:06.487Z,24.00
2018-11-02T06:33:12.034Z,28.00
2018-11-02T06:34:17.561Z,32.00
2018-11-02T06:35:23.093Z,40.00
2018-11-02T06:36:28.629Z,44.00
2018-11-02T06:37:34.163Z,52.00
2018-11-02T06:38:39.704Z,56.00
2018-11-02T06:39:45.233Z,64.00
2018-11-02T06:40:50.770Z,72.00
2018-11-02T06:41:56.307Z,68.00
2018-11-02T06:43:01.846Z,64.00
2018-11-02T06:44:07.379Z,72.00
2018-11-02T06:45:12.928Z,80.00
2018-11-02T06:46:18.447Z,80.00
2018-11-02T06:47:23.984Z,80.00
2018-11-02T06:48:29.516Z,76.00
2018-11-02T06:49:35.061Z,80.00
2018-11-02T06:50:40.638Z,88.00
2018-11-02T06:51:46.126Z,100.00
2018-11-02T06:52:51.658Z,108.00
2018-11-02T06:53:57.196Z,112.00
2018-11-02T06:56:34.328Z,140.00
2018-11-02T06:57:39.869Z,152.00
2018-11-02T06:58:45.380Z,168.00
2018-11-02T06:59:51.124Z,168.00
2018-11-02T07:00:56.449Z,180.00
2018-11-02T07:02:01.984Z,204.00
2018-11-02T07:03:07.514Z,208.00
2018-11-02T07:04:13.051Z,208.00
2018-11-02T07:05:18.593Z,196.00
2018-11-02T07:06:24.122Z,184.00
2018-11-02T07:07:29.912Z,184.00
2018-11-02T07:08:35.212Z,196.00
2018-11-02T07:09:40.728Z,176.00
2018-11-02T07:10:46.271Z,156.00
2018-11-02T07:11:51.802Z,152.00
2018-11-02T07:12:57.344Z,160.00
2018-11-02T07:14:02.915Z,160.00
2018-11-02T07:15:08.402Z,164.00
2018-11-02T07:16:13.944Z,168.00
2018-11-02T07:17:19.477Z,176.00
2018-11-02T07:18:25.014Z,184.00
2018-11-02T07:19:30.551Z,192.00
2018-11-02T07:20:36.082Z,200.00
2018-11-02T07:21:41.618Z,212.00
2018-11-02T07:22:47.153Z,228.00
2018-11-02T07:23:52.763Z,232.00
2018-11-02T07:24:58.336Z,228.00
2018-11-02T07:26:03.768Z,232.00
2018-11-02T07:27:09.300Z,232.00
2018-11-02T07:28:14.884Z,228.00
2018-11-02T07:29:20.374Z,216.00
2018-11-02T07:30:25.909Z,228.00
2018-11-02T07:31:31.438Z,240.00
2018-11-02T07:32:36.977Z,256.00
2018-11-02T07:33:42.517Z,256.00
2018-11-02T07:34:48.049Z,252.00
2018-11-02T07:35:53.582Z,256.00
2018-11-02T07:36:59.116Z,264.00
2018-11-02T07:38:04.656Z,272.00
2018-11-02T07:39:10.190Z,284.00
2018-11-02T07:40:15.726Z,284.00
2018-11-02T07:41:21.262Z,284.00
2018-11-02T07:42:26.797Z,292.00
2018-11-02T07:43:32.339Z,300.00
2018-11-02T07:44:37.868Z,308.00
2018-11-02T07:45:43.406Z,300.00
2018-11-02T07:46:48.947Z,304.00
2018-11-02T07:47:54.476Z,304.00
2018-11-02T07:49:00.015Z,320.00
2018-11-02T07:50:05.557Z,288.00
2018-11-02T07:51:11.087Z,288.00
2018-11-02T07:52:16.620Z,312.00
2018-11-02T07:53:22.155Z,340.00
2018-11-02T07:54:27.691Z,348.00
2018-11-02T07:55:33.228Z,364.00
2018-11-02T07:56:38.770Z,376.00
2018-11-02T07:57:44.300Z,404.00
2018-11-02T07:58:49.841Z,428.00
2018-11-02T07:59:55.376Z,436.00
2018-11-02T08:01:00.911Z,464.00
2018-11-02T08:02:06.444Z,588.00
2018-11-02T08:03:11.987Z,528.00
2018-11-02T08:04:17.517Z,508.00
2018-11-02T08:05:23.054Z,512.00
2018-11-02T08:06:28.592Z,852.00
2018-11-02T08:07:34.130Z,932.00
2018-11-02T08:08:39.662Z,936.00
2018-11-02T08:09:45.198Z,884.00
2018-11-02T08:10:50.732Z,532.00
2018-11-02T08:11:56.276Z,516.00
2018-11-02T08:13:01.811Z,580.00
2018-11-02T08:14:07.339Z,708.00
2018-11-02T08:15:12.877Z,636.00
2018-11-02T08:16:18.413Z,876.00
2018-11-02T08:17:23.949Z,828.00
2018-11-02T08:18:29.486Z,892.00
2018-11-02T08:19:35.029Z,992.00
2018-11-02T08:20:40.559Z,948.00
2018-11-02T08:21:46.099Z,892.00
2018-11-02T08:22:51.636Z,992.00
2018-11-02T08:23:57.169Z,700.00
2018-11-02T08:25:02.717Z,692.00
2018-11-02T08:26:08.243Z,1064.00
2018-11-02T08:27:13.776Z,788.00
2018-11-02T08:28:19.318Z,768.00
2018-11-02T08:29:24.855Z,1008.00
2018-11-02T08:30:30.392Z,896.00
2018-11-02T08:31:35.925Z,848.00
2018-11-02T08:32:41.462Z,900.00
2018-11-02T08:33:46.998Z,748.00
2018-11-02T08:34:52.532Z,628.00
2018-11-02T08:35:58.072Z,516.00
2018-11-02T08:37:03.608Z,380.00
2018-11-02T08:38:09.145Z,244.00
2018-11-02T08:39:14.678Z,200.00
2018-11-02T08:40:20.253Z,196.00
2018-11-02T08:41:25.754Z,232.00
2018-11-02T08:42:31.289Z,320.00
2018-11-02T08:43:36.826Z,436.00
2018-11-02T08:44:42.362Z,360.00
2018-11-02T08:45:47.901Z,312.00
2018-11-02T08:46:53.436Z,264.00
2018-11-02T08:47:58.982Z,240.00
2018-11-02T08:49:04.513Z,216.00
2018-11-02T08:50:10.049Z,172.00
2018-11-02T08:51:15.585Z,188.00
2018-11-02T08:52:21.179Z,200.00
2018-11-02T08:53:26.655Z,200.00
2018-11-02T08:54:32.193Z,200.00
2018-11-02T08:55:37.736Z,220.00
2018-11-02T08:56:43.269Z,236.00
2018-11-02T08:57:48.904Z,256.00
2018-11-02T08:58:54.389Z,272.00
2018-11-02T08:59:59.932Z,324.00
2018-11-02T09:01:05.410Z,384.00
2018-11-02T09:02:10.953Z,412.00
2018-11-02T09:03:16.488Z,340.00
2018-11-02T09:04:22.024Z,304.00
2018-11-02T09:05:27.562Z,304.00
2018-11-02T09:06:33.100Z,332.00
2018-11-02T09:07:38.635Z,396.00
2018-11-02T09:08:44.174Z,424.00
2018-11-02T09:09:49.720Z,452.00
2018-11-02T09:10:55.243Z,436.00
2018-11-02T09:12:00.830Z,408.00
2018-11-02T09:13:06.323Z,412.00
2018-11-02T09:14:11.854Z,416.00
2018-11-02T09:15:17.388Z,400.00
2018-11-02T09:16:22.928Z,364.00
2018-11-02T09:17:28.466Z,296.00
2018-11-02T09:18:34.103Z,332.00
2018-11-02T09:19:39.542Z,296.00
2018-11-02T09:20:45.082Z,324.00
2018-11-02T09:21:50.610Z,328.00
2018-11-02T09:22:56.166Z,304.00
2018-11-02T09:24:01.680Z,312.00
2018-11-02T09:25:07.220Z,304.00
2018-11-02T09:26:12.759Z,348.00
2018-11-02T09:27:18.332Z,336.00
2018-11-02T09:28:23.835Z,316.00
2018-11-02T09:29:29.376Z,364.00
2018-11-02T09:30:34.906Z,460.00
2018-11-02T09:31:40.459Z,424.00
2018-11-02T09:32:45.978Z,388.00
2018-11-02T09:33:51.515Z,320.00
2018-11-02T09:34:57.049Z,308.00
2018-11-02T09:36:02.588Z,368.00
2018-11-02T09:37:08.123Z,432.00
2018-11-02T09:38:13.668Z,396.00
2018-11-02T09:39:19.201Z,336.00
2018-11-02T09:40:24.822Z,296.00
2018-11-02T09:41:30.274Z,272.00
2018-11-02T09:42:35.869Z,328.00
2018-11-02T09:43:41.343Z,432.00
2018-11-02T09:44:46.888Z,544.00
2018-11-02T09:45:52.476Z,576.00
2018-11-02T09:46:57.954Z,584.00
2018-11-02T09:48:03.497Z,524.00
2018-11-02T09:49:09.031Z,528.00
2018-11-02T09:50:14.568Z,536.00
2018-11-02T09:51:20.127Z,556.00
2018-11-02T09:52:25.636Z,520.00
2018-11-02T09:53:31.176Z,528.00
2018-11-02T09:54:36.982Z,560.00
2018-11-02T09:55:42.248Z,556.00
2018-11-02T09:56:47.784Z,552.00
2018-11-02T09:57:53.476Z,644.00
2018-11-02T09:58:58.856Z,628.00
2018-11-02T10:00:04.400Z,684.00
2018-11-02T10:01:09.931Z,684.00
2018-11-02T10:02:15.566Z,644.00
2018-11-02T10:03:21.006Z,596.00
2018-11-02T10:04:26.545Z,628.00
2018-11-02T10:05:32.084Z,648.00
2018-11-02T10:06:37.616Z,748.00
2018-11-02T10:07:43.157Z,1012.00
2018-11-02T10:08:48.698Z,992.00
2018-11-02T10:09:54.233Z,1196.00
2018-11-02T10:10:59.769Z,1164.00
2018-11-02T10:12:05.304Z,1560.00
2018-11-02T10:13:10.841Z,1684.00
2018-11-02T10:14:16.377Z,1352.00
2018-11-02T10:15:21.917Z,1648.00
2018-11-02T10:16:27.453Z,1312.00
2018-11-02T10:17:32.987Z,844.00
2018-11-02T10:18:38.532Z,908.00
2018-11-02T10:19:44.068Z,784.00
2018-11-02T10:20:49.605Z,808.00
2018-11-02T10:21:55.141Z,844.00
2018-11-02T10:23:00.678Z,808.00
2018-11-02T10:24:06.214Z,832.00
2018-11-02T10:25:11.752Z,840.00
2018-11-02T10:26:17.293Z,912.00
2018-11-02T10:27:22.834Z,948.00
2018-11-02T10:28:28.366Z,888.00
2018-11-02T10:29:33.908Z,892.00
2018-11-02T10:30:39.444Z,852.00
2018-11-02T10:31:44.976Z,884.00
2018-11-02T10:32:50.512Z,812.00
2018-11-02T10:33:56.048Z,728.00
2018-11-02T10:35:01.590Z,684.00
2018-11-02T10:36:07.255Z,584.00
2018-11-02T10:37:12.663Z,524.00
2018-11-02T10:38:18.200Z,476.00
2018-11-02T10:39:23.751Z,444.00
2018-11-02T10:40:29.276Z,408.00
2018-11-02T10:41:34.820Z,368.00
2018-11-02T10:42:40.356Z,376.00
2018-11-02T10:43:45.889Z,488.00
2018-11-02T10:44:51.468Z,652.00
2018-11-02T10:45:56.974Z,732.00
2018-11-02T10:47:02.501Z,676.00
2018-11-02T10:48:08.041Z,624.00
2018-11-02T10:49:13.633Z,1488.00
2018-11-02T10:50:19.116Z,884.00
2018-11-02T10:51:24.651Z,1540.00
2018-11-02T10:52:30.191Z,1564.00
2018-11-02T10:53:35.729Z,1540.00
2018-11-02T10:54:41.400Z,1620.00
2018-11-02T10:55:46.809Z,1564.00
2018-11-02T10:56:52.347Z,1084.00
2018-11-02T10:57:57.880Z,820.00
2018-11-02T10:59:03.416Z,744.00
2018-11-02T11:00:08.962Z,784.00
2018-11-02T11:01:14.538Z,1576.00
2018-11-02T11:02:20.033Z,956.00
2018-11-02T11:03:25.577Z,860.00
2018-11-02T11:04:31.112Z,864.00
2018-11-02T11:05:36.810Z,1368.00
2018-11-02T11:06:42.188Z,988.00
2018-11-02T11:07:47.731Z,1264.00
2018-11-02T11:08:53.263Z,1204.00
2018-11-02T11:09:58.816Z,1560.00
2018-11-02T11:11:04.339Z,808.00
2018-11-02T11:12:09.993Z,1536.00
2018-11-02T11:13:15.770Z,952.00
2018-11-02T11:14:20.951Z,1528.00
2018-11-02T11:15:26.489Z,1516.00
2018-11-02T11:16:32.027Z,1548.00
2018-11-02T11:17:37.572Z,1568.00
2018-11-02T11:18:43.108Z,1552.00
2018-11-02T11:19:48.645Z,1520.00
2018-11-02T11:20:54.181Z,1440.00
2018-11-02T11:21:59.718Z,1388.00
2018-11-02T11:23:05.257Z,1356.00
2018-11-02T11:24:10.802Z,1364.00
2018-11-02T11:25:16.333Z,1360.00
2018-11-02T11:26:21.872Z,1380.00
2018-11-02T11:27:27.414Z,1380.00
2018-11-02T11:28:32.953Z,1384.00
2018-11-02T11:29:38.488Z,1404.00
2018-11-02T11:30:44.024Z,1384.00
2018-11-02T11:31:49.564Z,1400.00
2018-11-02T11:32:55.108Z,656.00
2018-11-02T11:34:00.644Z,1448.00
2018-11-02T11:35:06.181Z,712.00
2018-11-02T11:36:11.718Z,868.00
2018-11-02T11:37:17.261Z,740.00
2018-11-02T11:38:22.799Z,852.00
2018-11-02T11:39:28.335Z,788.00
2018-11-02T11:40:33.871Z,764.00
2018-11-02T11:41:39.414Z,1496.00
2018-11-02T11:42:44.949Z,1324.00
2018-11-02T11:43:50.492Z,860.00
2018-11-02T11:44:56.030Z,804.00
2018-11-02T11:46:01.562Z,1444.00
2018-11-02T11:47:07.103Z,1004.00
2018-11-02T11:48:12.644Z,872.00
2018-11-02T11:49:18.240Z,856.00
2018-11-02T11:50:23.720Z,764.00
2018-11-02T11:51:29.254Z,1064.00
2018-11-02T11:52:34.793Z,1064.00
2018-11-02T11:53:40.333Z,1476.00
2018-11-02T11:54:45.874Z,1448.00
2018-11-02T11:55:51.408Z,1480.00
2018-11-02T11:56:56.946Z,1532.00
2018-11-02T11:58:02.488Z,1524.00
2018-11-02T11:59:08.024Z,1520.00
2018-11-02T12:00:13.563Z,1512.00
2018-11-02T12:01:19.101Z,1500.00
2018-11-02T12:02:24.753Z,1328.00
2018-11-02T12:03:30.181Z,1472.00
2018-11-02T12:04:35.825Z,1464.00
2018-11-02T12:05:41.263Z,1456.00
2018-11-02T12:06:46.793Z,1440.00
2018-11-02T12:07:52.328Z,1400.00
2018-11-02T12:08:57.876Z,1392.00
2018-11-02T12:10:03.414Z,1388.00
2018-11-02T12:11:08.952Z,1452.00
2018-11-02T12:12:14.493Z,1416.00
2018-11-02T12:13:20.027Z,732.00
2018-11-02T12:14:25.565Z,932.00
2018-11-02T12:15:31.101Z,640.00
2018-11-02T12:16:36.642Z,648.00
2018-11-02T12:17:42.185Z,636.00
2018-11-02T12:18:47.720Z,636.00
2018-11-02T12:19:53.259Z,640.00
2018-11-02T12:20:58.797Z,624.00
2018-11-02T12:22:04.340Z,596.00
2018-11-02T12:23:09.877Z,580.00
2018-11-02T12:24:15.413Z,584.00
2018-11-02T12:25:20.952Z,664.00
2018-11-02T12:26:26.490Z,640.00
2018-11-02T12:27:32.032Z,924.00
2018-11-02T12:28:37.638Z,1136.00
2018-11-02T12:29:43.107Z,1212.00
2018-11-02T12:30:48.656Z,752.00
2018-11-02T12:31:54.185Z,688.00
2018-11-02T12:32:59.725Z,660.00
2018-11-02T12:34:05.260Z,720.00
2018-11-02T12:35:10.798Z,748.00
2018-11-02T12:36:16.336Z,632.00
2018-11-02T12:37:21.882Z,600.00
2018-11-02T12:38:27.415Z,660.00
2018-11-02T12:39:32.953Z,624.00
2018-11-02T12:40:38.521Z,656.00
2018-11-02T12:41:44.031Z,700.00
2018-11-02T12:42:49.627Z,776.00
2018-11-02T12:43:55.208Z,704.00
2018-11-02T12:45:00.645Z,664.00
2018-11-02T12:46:06.184Z,644.00
2018-11-02T12:47:11.722Z,644.00
2018-11-02T12:48:17.341Z,756.00
2018-11-02T12:49:23.192Z,744.00
2018-11-02T12:50:28.451Z,948.00
2018-11-02T12:51:33.876Z,968.00
2018-11-02T12:52:39.418Z,656.00
2018-11-02T12:53:44.951Z,756.00
2018-11-02T12:54:50.492Z,676.00
2018-11-02T12:55:56.027Z,824.00
2018-11-02T12:57:01.567Z,540.00
2018-11-02T12:58:07.108Z,536.00
2018-11-02T12:59:12.643Z,560.00
2018-11-02T13:00:18.187Z,704.00
2018-11-02T13:01:23.719Z,764.00
2018-11-02T13:02:29.256Z,832.00
2018-11-02T13:03:34.799Z,740.00
2018-11-02T13:04:40.338Z,796.00
2018-11-02T13:05:45.871Z,640.00
2018-11-02T13:06:51.410Z,792.00
2018-11-02T13:07:56.945Z,772.00
2018-11-02T13:09:02.487Z,764.00
2018-11-02T13:10:08.023Z,756.00
2018-11-02T13:11:13.568Z,704.00
2018-11-02T13:12:19.103Z,552.00
2018-11-02T13:13:24.641Z,588.00
2018-11-02T13:14:30.181Z,704.00
2018-11-02T13:15:35.747Z,704.00
2018-11-02T13:16:41.251Z,684.00
2018-11-02T13:17:46.794Z,684.00
2018-11-02T13:18:52.382Z,660.00
2018-11-02T13:19:57.877Z,640.00
2018-11-02T13:21:03.406Z,640.00
2018-11-02T13:22:08.971Z,620.00
2018-11-02T13:23:14.487Z,596.00
2018-11-02T13:24:20.024Z,604.00
2018-11-02T13:25:25.637Z,576.00
2018-11-02T13:26:31.105Z,564.00
2018-11-02T13:27:36.640Z,560.00
2018-11-02T13:28:42.169Z,552.00
2018-11-02T13:29:47.709Z,540.00
2018-11-02T13:30:53.425Z,524.00
2018-11-02T13:31:58.886Z,528.00
2018-11-02T13:33:04.324Z,524.00
2018-11-02T13:34:09.864Z,520.00
2018-11-02T13:35:15.397Z,508.00
2018-11-02T13:36:21.005Z,508.00
2018-11-02T13:37:26.474Z,516.00
2018-11-02T13:38:32.009Z,528.00
2018-11-02T13:39:37.554Z,548.00
2018-11-02T13:40:43.090Z,528.00
2018-11-02T13:41:48.632Z,540.00
2018-11-02T13:42:54.209Z,540.00
2018-11-02T13:43:59.700Z,544.00
2018-11-02T13:45:05.240Z,544.00
2018-11-02T13:46:10.775Z,528.00
2018-11-02T13:47:16.320Z,552.00
2018-11-02T13:48:21.851Z,572.00
2018-11-02T13:49:27.389Z,536.00
2018-11-02T13:50:32.988Z,496.00
2018-11-02T13:51:38.463Z,472.00
2018-11-02T13:52:44.004Z,512.00
2018-11-02T13:53:49.541Z,544.00
2018-11-02T13:54:55.079Z,492.00
2018-11-02T13:56:00.614Z,460.00
2018-11-02T13:57:06.165Z,468.00
2018-11-02T13:58:11.691Z,464.00
2018-11-02T13:59:17.315Z,464.00
2018-11-02T14:01:54.365Z,464.00
2018-11-02T14:02:59.888Z,452.00
2018-11-02T14:04:58.331Z,440.00